Main page
METAR-TAF:

METAR-TAF

Airports :

Mécheria Airport

Mécheria, Algeria

latitude: 34-56N, longitude: 000-26W, elevation: 1149 m

Current weather observation

The report was made 16 minutes ago, at 01:00 UTC
Wind 4 kt from the South/Southeast
Temperature 13°C
Humidity 26%
Pressure 1016 hPa
Visibility 10 km or more
no clouds below 1500 m and no cumulonimbus

METAR: DAAY 250100Z 16004KT CAVOK 13/M06 Q1016

Time: 02:16 (01:16 UTC)

Forecast

The report was made 2 hours and 16 minutes ago, at 23:00 UTC
Forecast valid from 25 at 00 UTC to 25 at 09 UTC
Wind 2 kt from variable directions
Visibility 10 km or more
no clouds below 1500 m and no cumulonimbus
Becoming
from 25 at 00 UTC to 25 at 03 UTC
Wind 12 kt from the South/Southwest

TAF: DAAY 242300Z 2500/2509 VRB02KT CAVOK BECMG 2500/2503 21012KT

Weather observations and forecasts of more than 4000 airports (METAR and TAF reports).

The available stations are represented by yellow and red dots on the map.

Hover mouse over dot to see the name of the station.

Then click to see weather observations and forecasts.

To change the map : click on the green buttons with a black cross to zoom in, on the green button with a dash to zoom out, or on the green arrows for adjacent maps.


METAR-TAF: